Temp: 17.7°C   Baro: 1017.7mb
  Wind: 0.0mph   Dir: W (274°)
  Rain: 0.2mm (0.0mm/hr)
  Solar: 0W/m2  Hum: 87%
 
Bath Spa Weather Station Historical Data
Daily Summary for June 19, 2019 Units:  English    Metric   Both
Daily Weekly Monthly Yearly Custom
  High: Low: Average:
Temperature: 64.5 °F 53.8 °F 57.8 °F
Dew Point: 56.6 °F 49.6 °F 51.7 °F
Humidity: 92.3% 62% 81%
Wind Speed: 15.1mph 0mph 5.3mph
Wind Gust: 28mph - -
Wind- - West
Pressure: 30.09 in 29.81 in -
Precipitation: 0.38 in    
Historical Graphs
 
 
Tabular Data for June 19, 2019
Time Temperature Dew Point Pressure Wind Wind Speed Wind Gust Humidity Rainfall Rate (Hourly) solar
00:04 56.1 °F 51.1 °F 29.81 in SW 6.5 mph 13 mph 83.2% 0.00 in 0 W/m2
00:07 56 °F 51.2 °F 29.81 in SW 5.6 mph 10 mph 83.7% 0.00 in 0 W/m2
00:10 55.9 °F 51.3 °F 29.81 in WSW 6 mph 10 mph 84% 0.00 in 0 W/m2
00:19 55.8 °F 51.1 °F 29.82 in WSW 5.2 mph 11 mph 84% 0.00 in 0 W/m2
00:24 55.8 °F 51.1 °F 29.82 in WSW 6.7 mph 12 mph 84% 0.00 in 0 W/m2
00:29 55.7 °F 51 °F 29.81 in SW 6.1 mph 12 mph 84% 0.00 in 0 W/m2
00:34 55.5 °F 50.8 °F 29.81 in WSW 5.5 mph 11 mph 84% 0.00 in 0 W/m2
00:39 55.4 °F 50.7 °F 29.82 in SW 5.7 mph 11 mph 84% 0.00 in 0 W/m2
00:44 55.4 °F 50.7 °F 29.82 in WSW 5.1 mph 9 mph 84% 0.00 in 0 W/m2
00:49 55.2 °F 50.5 °F 29.82 in WSW 4.5 mph 9 mph 84% 0.00 in 0 W/m2
00:54 55.2 °F 50.7 °F 29.82 in WSW 6.1 mph 15 mph 85% 0.00 in 0 W/m2
00:59 55.2 °F 50.7 °F 29.82 in SW 8.5 mph 15 mph 85% 0.00 in 0 W/m2
01:04 55.3 °F 50.8 °F 29.82 in SW 9 mph 16 mph 85% 0.00 in 0 W/m2
01:09 55.3 °F 50.8 °F 29.82 in WSW 5.9 mph 13 mph 85% 0.00 in 0 W/m2
01:14 55.2 °F 50.6 °F 29.82 in WSW 5 mph 13 mph 84.6% 0.00 in 0 W/m2
01:19 55.1 °F 50.6 °F 29.82 in WSW 4 mph 9 mph 84.9% 0.00 in 0 W/m2
01:24 55 °F 50.5 °F 29.82 in WSW 2.7 mph 8 mph 85% 0.00 in 0 W/m2
01:29 55 °F 50.5 °F 29.82 in WSW 5.4 mph 11 mph 85% 0.00 in 0 W/m2
01:34 55 °F 50.5 °F 29.82 in WSW 7.4 mph 16 mph 85% 0.00 in 0 W/m2
01:39 55 °F 50.5 °F 29.82 in West 4.6 mph 16 mph 85% 0.00 in 0 W/m2
01:44 55.2 °F 50.7 °F 29.82 in WSW 4.7 mph 11 mph 85% 0.00 in 0 W/m2
01:49 55.2 °F 50.7 °F 29.82 in WSW 7.6 mph 12 mph 85% 0.00 in 0 W/m2
01:54 55.4 °F 50.9 °F 29.82 in WSW 6 mph 13 mph 85% 0.00 in 0 W/m2
01:59 55.4 °F 50.9 °F 29.82 in WSW 6.7 mph 13 mph 85% 0.00 in 0 W/m2
02:04 55.3 °F 50.8 °F 29.82 in SW 5.3 mph 11 mph 85% 0.00 in 0 W/m2
02:09 55.2 °F 50.7 °F 29.82 in WSW 7.5 mph 13 mph 85% 0.00 in 0 W/m2
02:14 55.1 °F 50.6 °F 29.82 in WSW 4.5 mph 13 mph 85% 0.00 in 0 W/m2
02:19 55 °F 50.5 °F 29.82 in WSW 4.2 mph 8 mph 85% 0.00 in 0 W/m2
02:24 54.9 °F 50.4 °F 29.82 in WSW 4.3 mph 10 mph 85% 0.00 in 0 W/m2
02:29 54.9 °F 50.4 °F 29.83 in WSW 4.2 mph 8 mph 85% 0.00 in 0 W/m2
02:34 54.8 °F 50.4 °F 29.82 in West 4.7 mph 10 mph 85.3% 0.00 in 0 W/m2
02:39 54.7 °F 50.5 °F 29.83 in West 6 mph 12 mph 86% 0.00 in 0 W/m2
02:44 54.7 °F 50.5 °F 29.82 in West 3.1 mph 12 mph 86% 0.00 in 0 W/m2
02:49 54.8 °F 50.6 °F 29.82 in West 4.7 mph 9 mph 86% 0.00 in 0 W/m2
02:54 54.9 °F 50.6 °F 29.83 in West 7.5 mph 14 mph 85.6% 0.00 in 0 W/m2
02:59 54.9 °F 50.4 °F 29.83 in West 3.8 mph 9 mph 85% 0.00 in 0 W/m2
03:04 54.8 °F 50.3 °F 29.83 in West 3.1 mph 7 mph 85% 0.00 in 0 W/m2
03:09 54.7 °F 50.2 °F 29.83 in West 6.4 mph 11 mph 85% 0.00 in 0 W/m2
03:14 54.7 °F 50.3 °F 29.83 in West 3.5 mph 9 mph 85.3% 0.00 in 0 W/m2
03:19 54.7 °F 50.5 °F 29.83 in WSW 5.4 mph 11 mph 86% 0.00 in 0 W/m2
03:24 54.7 °F 50.5 °F 29.83 in West 3.7 mph 8 mph 86% 0.00 in 0 W/m2
03:29 54.7 °F 50.5 °F 29.83 in West 3.5 mph 8 mph 86% 0.00 in 0 W/m2
03:34 54.6 °F 50.4 °F 29.83 in WSW 4.5 mph 9 mph 86% 0.00 in 0 W/m2
03:39 54.5 °F 50.4 °F 29.83 in West 1.8 mph 8 mph 86% 0.00 in 0 W/m2
03:44 54.5 °F 50.4 °F 29.83 in WSW 2.6 mph 8 mph 86% 0.00 in 0 W/m2
03:49 54.5 °F 50.4 °F 29.83 in WSW 2.7 mph 6 mph 86% 0.00 in 0 W/m2
03:54 54.3 °F 50.2 °F 29.83 in West 2.8 mph 10 mph 86% 0.00 in 0 W/m2
03:59 54.3 °F 50.2 °F 29.83 in WSW 3.7 mph 10 mph 86% 0.00 in 0 W/m2
04:04 54.1 °F 50 °F 29.83 in WSW 4.3 mph 10 mph 86% 0.00 in 0 W/m2
04:09 54.1 °F 50 °F 29.83 in WSW 3.5 mph 9 mph 86% 0.00 in 0 W/m2
04:14 54.1 °F 50 °F 29.83 in WSW 3.7 mph 9 mph 86% 0.00 in 0 W/m2
04:19 54.1 °F 50 °F 29.83 in WSW 1.7 mph 9 mph 86% 0.00 in 0 W/m2
04:24 54.1 °F 49.9 °F 29.83 in West 2.7 mph 6 mph 86% 0.00 in 0 W/m2
04:29 54 °F 49.8 °F 29.83 in West 2.1 mph 6 mph 86% 0.00 in 0 W/m2
04:34 54 °F 50 °F 29.84 in West 1.5 mph 7 mph 86.6% 0.00 in 0 W/m2
04:39 54 °F 50.2 °F 29.84 in West 1.2 mph 5 mph 87% 0.00 in 0 W/m2
04:44 54 °F 50.2 °F 29.84 in West 0.9 mph 5 mph 87% 0.00 in 0 W/m2
04:49 54 °F 50.2 °F 29.84 in West 2.7 mph 5 mph 87% 0.00 in 0 W/m2
04:54 54 °F 50.2 °F 29.84 in West 0.8 mph 4 mph 87% 0.00 in 0 W/m2
04:59 54.1 °F 50.4 °F 29.84 in SW 1.9 mph 6 mph 87% 0.00 in 0 W/m2
05:04 54.1 °F 50.4 °F 29.84 in WSW 2.3 mph 7 mph 87% 0.00 in 0 W/m2
05:09 54.1 °F 50.4 °F 29.85 in WSW 1.7 mph 6 mph 87% 0.00 in 0 W/m2
05:14 54.1 °F 50.4 °F 29.85 in WSW 1.4 mph 5 mph 87% 0.00 in 0 W/m2
05:19 54.1 °F 50.4 °F 29.85 in WNW 3.5 mph 7 mph 87% 0.00 in 0 W/m2
05:24 54.1 °F 50.4 °F 29.85 in West 2.2 mph 6 mph 87% 0.00 in 0 W/m2
05:29 54.1 °F 50.4 °F 29.85 in WNW 3.8 mph 7 mph 87% 0.00 in 0 W/m2
05:34 54.1 °F 50.4 °F 29.85 in WNW 2.8 mph 7 mph 87% 0.00 in 0 W/m2
05:39 54.1 °F 50.4 °F 29.85 in West 3.9 mph 7 mph 87% 0.01 in 0 W/m2
05:44 54 °F 50.5 °F 29.85 in West 2 mph 7 mph 87.9% 0.02 in 0 W/m2
05:49 54 °F 50.5 °F 29.85 in West 1.8 mph 6 mph 88% 0.02 in 0 W/m2
05:54 54 °F 50.5 °F 29.85 in West 1.8 mph 5 mph 88% 0.02 in 0 W/m2
05:59 53.9 °F 50.6 °F 29.85 in West 1.8 mph 5 mph 88.7% 0.02 in 0 W/m2
06:04 54 °F 50.7 °F 29.85 in WSW 1.4 mph 6 mph 89% 0.02 in 0 W/m2
06:09 54 °F 50.7 °F 29.86 in SW 1.1 mph 5 mph 89% 0.02 in 0 W/m2
06:14 54 °F 50.7 °F 29.86 in SW 1 mph 4 mph 89% 0.02 in 5 W/m2
06:19 54 °F 50.7 °F 29.86 in WSW 1.2 mph 4 mph 89% 0.02 in 0 W/m2
06:24 54 °F 50.7 °F 29.86 in WSW 3.8 mph 5 mph 89% 0.02 in 11 W/m2
06:29 54 °F 50.7 °F 29.86 in WSW 2.3 mph 6 mph 89% 0.02 in 16 W/m2
06:34 54 °F 50.7 °F 29.87 in West 2.2 mph 6 mph 89% 0.02 in 25 W/m2
06:39 53.8 °F 50.5 °F 29.87 in WSW 2.2 mph 7 mph 89% 0.02 in 32 W/m2
06:44 53.8 °F 50.5 °F 29.87 in WSW 2.8 mph 7 mph 89% 0.01 in 58 W/m2
06:49 53.9 °F 50.6 °F 29.87 in WSW 4.3 mph 9 mph 89% 0.02 in 58 W/m2
06:54 53.9 °F 50.6 °F 29.87 in WSW 3.5 mph 7 mph 89% 0.02 in 44 W/m2
06:59 53.8 °F 50.5 °F 29.87 in WSW 2 mph 6 mph 89% 0.02 in 35 W/m2
07:04 53.8 °F 50.5 °F 29.88 in WSW 1.7 mph 6 mph 89% 0.02 in 60 W/m2
07:09 53.9 °F 50.6 °F 29.87 in WSW 3.4 mph 7 mph 89% 0.02 in 102 W/m2
07:14 54 °F 50.7 °F 29.88 in SW 4.4 mph 9 mph 89% 0.02 in 107 W/m2
07:19 54 °F 50.9 °F 29.88 in WSW 3.3 mph 9 mph 89.4% 0.02 in 97 W/m2
07:24 54.2 °F 51.2 °F 29.88 in WSW 1.7 mph 7 mph 89.6% 0.02 in 86 W/m2
07:29 54.4 °F 51.5 °F 29.88 in SW 3.5 mph 8 mph 90% 0.02 in 72 W/m2
07:34 54.5 °F 51.6 °F 29.88 in WSW 4.6 mph 9 mph 90% 0.02 in 107 W/m2
07:39 54.6 °F 51.7 °F 29.88 in WSW 4.9 mph 11 mph 90% 0.02 in 137 W/m2
07:44 54.7 °F 51.6 °F 29.88 in WSW 5 mph 11 mph 89.5% 0.03 in 132 W/m2
07:49 54.7 °F 51.5 °F 29.88 in West 3.8 mph 9 mph 89.1% 0.03 in 109 W/m2
07:54 54.8 °F 51.7 °F 29.89 in West 1.9 mph 8 mph 89.6% 0.03 in 56 W/m2
07:59 54.8 °F 51.9 °F 29.89 in West 2 mph 4 mph 90% 0.06 in 40 W/m2
08:04 54.7 °F 51.8 °F 29.89 in West 1.2 mph 5 mph 90% 0.06 in 46 W/m2
08:09 54.8 °F 51.9 °F 29.89 in West 0.3 mph 4 mph 90% 0.06 in 62 W/m2
08:14 54.7 °F 51.8 °F 29.89 in West 2.8 mph 8 mph 90% 0.06 in 128 W/m2
08:19 54.8 °F 52 °F 29.89 in WSW 2 mph 7 mph 90.1% 0.06 in 223 W/m2
08:24 54.9 °F 52.4 °F 29.90 in WSW 1.2 mph 7 mph 91% 0.06 in 225 W/m2
08:29 55.2 °F 52.7 °F 29.90 in WSW 1.9 mph 6 mph 91% 0.06 in 162 W/m2
08:34 55.2 °F 52.7 °F 29.90 in WSW 3.5 mph 9 mph 91% 0.13 in 58 W/m2
08:39 55 °F 52.5 °F 29.90 in WSW 0.5 mph 9 mph 91% 0.15 in 47 W/m2
08:44 55 °F 52.5 °F 29.90 in WSW 0.6 mph 7 mph 91% 0.15 in 63 W/m2
08:49 55 °F 52.5 °F 29.90 in WSW 0.4 mph 7 mph 91% 0.17 in 95 W/m2
08:54 55 °F 52.5 °F 29.90 in Calm   2 mph 91% 0.17 in 137 W/m2
08:59 55.2 °F 52.7 °F 29.91 in WSW 0.5 mph 3 mph 91% 0.14 in 146 W/m2
09:04 55.4 °F 52.9 °F 29.91 in West 2.6 mph 6 mph 91% 0.13 in 93 W/m2
09:09 55.5 °F 53.1 °F 29.91 in West 4.4 mph 8 mph 91.7% 0.14 in 86 W/m2
09:14 55.6 °F 53.2 °F 29.91 in West 5.1 mph 10 mph 92% 0.15 in 116 W/m2
09:19 55.5 °F 53.2 °F 29.91 in West 3.8 mph 10 mph 92% 0.17 in 123 W/m2
09:24 55.6 °F 53.2 °F 29.91 in WSW 2.6 mph 9 mph 92% 0.17 in 125 W/m2
09:29 55.8 °F 53.4 °F 29.92 in WSW 1.7 mph 7 mph 92% 0.18 in 125 W/m2
09:34 55.8 °F 53.4 °F 29.92 in WSW 3 mph 9 mph 92% 0.15 in 84 W/m2
09:39 55.6 °F 53.2 °F 29.92 in WSW 2.6 mph 8 mph 92% 0.12 in 139 W/m2
09:44 55.8 °F 53.4 °F 29.92 in WSW 2.2 mph 8 mph 92% 0.12 in 174 W/m2
09:49 55.8 °F 53.5 °F 29.92 in West 3.1 mph 8 mph 92% 0.11 in 199 W/m2
09:54 56 °F 53.7 °F 29.92 in West 3.6 mph 8 mph 92% 0.09 in 294 W/m2
09:59 56.3 °F 54 °F 29.92 in WSW 2.8 mph 6 mph 92% 0.09 in 338 W/m2
10:04 56.7 °F 54.4 °F 29.93 in WSW 4.2 mph 8 mph 92.3% 0.09 in 239 W/m2
10:09 56.7 °F 54.3 °F 29.93 in WSW 3.8 mph 7 mph 92% 0.08 in 243 W/m2
10:14 57 °F 54.7 °F 29.92 in SW 1.7 mph 5 mph 92% 0.06 in 229 W/m2
10:19 57 °F 54.7 °F 29.93 in WSW 4.7 mph 9 mph 92% 0.05 in 206 W/m2
10:24 56.9 °F 54.6 °F 29.93 in West 4 mph 9 mph 92% 0.05 in 274 W/m2
10:29 56.9 °F 54.4 °F 29.93 in West 4.6 mph 8 mph 91% 0.04 in 294 W/m2
10:34 56.8 °F 54.3 °F 29.93 in West 5 mph 10 mph 91% 0.04 in 294 W/m2
10:39 56.7 °F 54.1 °F 29.93 in West 5.4 mph 10 mph 90.9% 0.02 in 146 W/m2
10:44 56.4 °F 53.5 °F 29.94 in WSW 6 mph 11 mph 90% 0.03 in 109 W/m2
10:49 55.9 °F 53.1 °F 29.94 in West 5.9 mph 11 mph 90% 0.03 in 111 W/m2
10:54 55.8 °F 52.9 °F 29.95 in West 3.4 mph 9 mph 90% 0.04 in 84 W/m2
10:59 55.6 °F 52.7 °F 29.95 in West 4.7 mph 10 mph 90% 0.04 in 107 W/m2
11:04 55.2 °F 52.3 °F 29.95 in West 4.7 mph 10 mph 90% 0.06 in 227 W/m2
11:09 55.1 °F 52.4 °F 29.95 in WSW 3.7 mph 6 mph 90.3% 0.07 in 316 W/m2
11:14 55.3 °F 52.8 °F 29.95 in WSW 2.7 mph 6 mph 91% 0.07 in 338 W/m2
11:19 55.9 °F 53.4 °F 29.95 in WSW 2.6 mph 8 mph 91.2% 0.07 in 418 W/m2
11:24 56.2 °F 53.7 °F 29.95 in West 3.9 mph 8 mph 91% 0.06 in 933 W/m2
11:29 57 °F 54.5 °F 29.95 in WNW 1.4 mph 8 mph 91.3% 0.06 in 555 W/m2
11:34 57.9 °F 55.5 °F 29.95 in West 5.9 mph 11 mph 91.7% 0.06 in 916 W/m2
11:39 58.8 °F 56.1 °F 29.95 in West 3.8 mph 11 mph 91% 0.05 in 925 W/m2
11:44 59.5 °F 56.6 °F 29.95 in West 7.3 mph 11 mph 90.1% 0.05 in 925 W/m2
11:49 59.8 °F 56.1 °F 29.95 in WSW 6.4 mph 15 mph 87.8% 0.04 in 512 W/m2
11:54 59 °F 54.9 °F 29.95 in West 7.4 mph 15 mph 86% 0.03 in 359 W/m2
11:59 58.5 °F 54.2 °F 29.95 in West 5.7 mph 11 mph 85.4% 0.03 in 299 W/m2
12:04 59.1 °F 55 °F 29.95 in West 4.8 mph 9 mph 86.1% 0.02 in 821 W/m2
12:09 59.5 °F 55.2 °F 29.95 in WSW 6.1 mph 13 mph 85.5% 0.01 in 443 W/m2
12:14 59.9 °F 55.4 °F 29.95 in West 5.7 mph 12 mph 85% 0.01 in 494 W/m2
12:19 59.9 °F 55.1 °F 29.95 in West 7.1 mph 14 mph 83.9% 0.01 in 494 W/m2
12:24 59.6 °F 54.2 °F 29.96 in West 5.7 mph 12 mph 82.3% 0.01 in 406 W/m2
12:29 59.8 °F 54.2 °F 29.96 in West 5.8 mph 10 mph 82% 0.01 in 406 W/m2
12:34 60.1 °F 54.1 °F 29.96 in West 9.9 mph 20 mph 80.5% 0.01 in 309 W/m2
12:39 60 °F 54 °F 29.96 in West 8.4 mph 20 mph 80.3% 0.01 in 348 W/m2
12:44 59.9 °F 54 °F 29.96 in WSW 7.5 mph 20 mph 80.7% 0.01 in 452 W/m2
12:49 59.9 °F 54.3 °F 29.96 in WSW 7.1 mph 20 mph 82% 0.01 in 483 W/m2
12:54 60.3 °F 54.7 °F 29.96 in West 8.7 mph 15 mph 82% 0.00 in 497 W/m2
12:59 60.4 °F 54.9 °F 29.96 in West 5.8 mph 15 mph 82% 0.00 in 343 W/m2
13:04 60.7 °F 54.9 °F 29.96 in WSW 7.5 mph 17 mph 81.3% 0.00 in 411 W/m2
13:09 61.2 °F 55.1 °F 29.96 in West 5.2 mph 17 mph 80.6% 0.00 in 724 W/m2
13:14 62.6 °F 56.3 °F 29.96 in WSW 4.5 mph 9 mph 79.8% 0.00 in 724 W/m2
13:19 62.8 °F 55.6 °F 29.96 in West 7.2 mph 14 mph 77.3% 0.00 in 540 W/m2
13:24 62.2 °F 54.8 °F 29.96 in WNW 6.1 mph 14 mph 76.8% 0.00 in 524 W/m2
13:29 62.3 °F 54.3 °F 29.96 in West 10.1 mph 19 mph 75.1% 0.00 in 967 W/m2
13:34 63.2 °F 54.2 °F 29.96 in West 8.8 mph 19 mph 72.6% 0.00 in 1000 W/m2
13:39 63.5 °F 54.2 °F 29.97 in West 9.2 mph 18 mph 71.6% 0.00 in 990 W/m2
13:44 63.6 °F 54.3 °F 29.97 in West 7.8 mph 18 mph 71.7% 0.00 in 886 W/m2
13:49 63.8 °F 53.6 °F 29.97 in West 12.3 mph 20 mph 69.4% 0.00 in 886 W/m2
13:54 63.1 °F 51.7 °F 29.97 in West 13.2 mph 22 mph 66.1% 0.00 in 770 W/m2
13:59 62.8 °F 50.9 °F 29.97 in West 12.9 mph 24 mph 65.2% 0.00 in 754 W/m2
14:04 63.1 °F 51.4 °F 29.98 in West 13.4 mph 23 mph 65.4% 0.00 in 752 W/m2
14:09 63.8 °F 52.5 °F 29.98 in West 8.5 mph 23 mph 66.5% 0.00 in 807 W/m2
14:14 63.9 °F 51.9 °F 29.98 in WNW 11.4 mph 22 mph 64.8% 0.00 in 807 W/m2
14:19 63.2 °F 51.5 °F 29.98 in WNW 12.6 mph 22 mph 65.5% 0.00 in 807 W/m2
14:24 63 °F 51.4 °F 29.98 in WNW 11.9 mph 23 mph 66% 0.00 in 765 W/m2
14:29 63 °F 51.6 °F 29.98 in WNW 11.9 mph 23 mph 66.2% 0.00 in 780 W/m2
14:34 63.8 °F 52.2 °F 29.98 in WNW 9.9 mph 22 mph 66% 0.00 in 777 W/m2
14:39 63.6 °F 51.6 °F 29.98 in WNW 12.2 mph 24 mph 65% 0.00 in 810 W/m2
14:44 63.4 °F 52 °F 29.98 in West 13.6 mph 25 mph 66.4% 0.00 in 773 W/m2
14:49 63.3 °F 52.8 °F 29.98 in WNW 10.8 mph 18 mph 68.5% 0.00 in 793 W/m2
14:54 63.2 °F 52.1 °F 29.98 in West 12.9 mph 23 mph 67.1% 0.00 in 830 W/m2
14:59 63 °F 51.8 °F 29.98 in WNW 13.2 mph 23 mph 67% 0.00 in 744 W/m2
15:04 63.3 °F 51.8 °F 29.98 in West 12.4 mph 22 mph 66.1% 0.00 in 751 W/m2
15:09 63.7 °F 51.4 °F 29.98 in West 13.2 mph 22 mph 64.5% 0.00 in 759 W/m2
15:14 63.8 °F 51.6 °F 29.99 in WNW 12.4 mph 24 mph 64.9% 0.00 in 717 W/m2
15:19 64.1 °F 52.5 °F 29.99 in WNW 7.8 mph 22 mph 66% 0.00 in 693 W/m2
15:24 64.4 °F 52.8 °F 29.99 in West 10.2 mph 18 mph 65.9% 0.00 in 684 W/m2
15:29 64.2 °F 53 °F 29.99 in West 10.9 mph 20 mph 66.8% 0.00 in 680 W/m2
15:34 64.3 °F 52.9 °F 29.99 in WNW 9.5 mph 17 mph 66.3% 0.00 in 677 W/m2
15:39 64.5 °F 52.9 °F 29.99 in WNW 10.8 mph 17 mph 66% 0.00 in 661 W/m2
15:44 64.3 °F 52.8 °F 29.99 in West 12.3 mph 19 mph 66.2% 0.00 in 649 W/m2
15:49 64.3 °F 53 °F 29.99 in WNW 11.4 mph 23 mph 66.6% 0.00 in 642 W/m2
15:54 64.3 °F 53 °F 29.99 in West 12 mph 16 mph 66.7% 0.00 in 640 W/m2
15:59 64.1 °F 51.8 °F 30.00 in WNW 12 mph 22 mph 64.4% 0.00 in 633 W/m2
16:04 64.2 °F 51.8 °F 30.00 in WNW 10.1 mph 21 mph 64% 0.00 in 601 W/m2
16:09 64.1 °F 51.9 °F 30.00 in WNW 11.6 mph 21 mph 64.5% 0.00 in 594 W/m2
16:14 63.9 °F 51.3 °F 30.00 in WNW 15.1 mph 28 mph 63.5% 0.00 in 584 W/m2
16:19 63.6 °F 51.2 °F 30.00 in WNW 13.1 mph 24 mph 64.2% 0.00 in 577 W/m2
16:24 63.8 °F 51.7 °F 30.00 in WNW 9.4 mph 21 mph 65% 0.00 in 584 W/m2
16:29 63.9 °F 52.4 °F 30.00 in WNW 11 mph 18 mph 66% 0.00 in 596 W/m2
16:34 63.4 °F 52 °F 30.01 in WNW 9 mph 18 mph 66.3% 0.00 in 192 W/m2
16:39 63.4 °F 52.1 °F 30.01 in WNW 11.1 mph 21 mph 66.5% 0.00 in 557 W/m2
16:44 63.6 °F 51.6 °F 30.01 in WNW 11.8 mph 21 mph 65% 0.00 in 531 W/m2
16:49 63.8 °F 51.3 °F 30.01 in West 11.5 mph 21 mph 63.7% 0.00 in 508 W/m2
16:54 63.9 °F 50.8 °F 30.01 in West 11.4 mph 22 mph 62.6% 0.00 in 494 W/m2
16:59 63.9 °F 50.5 °F 30.01 in West 11 mph 22 mph 62% 0.00 in 494 W/m2
17:04 63.5 °F 50.7 °F 30.01 in West 11.9 mph 22 mph 62.9% 0.00 in 520 W/m2
17:09 63.2 °F 50.9 °F 30.01 in West 9.7 mph 21 mph 64.2% 0.00 in 520 W/m2
17:14 63.5 °F 51.6 °F 30.01 in WNW 9.6 mph 19 mph 65.2% 0.00 in 464 W/m2
17:19 63.3 °F 51.6 °F 30.01 in WNW 11.3 mph 19 mph 65.6% 0.00 in 446 W/m2
17:24 63.2 °F 51.8 °F 30.01 in WNW 8.5 mph 18 mph 66.4% 0.00 in 439 W/m2
17:29 63.6 °F 52 °F 30.01 in WNW 9 mph 20 mph 65.8% 0.00 in 406 W/m2
17:34 63.3 °F 52.1 °F 30.01 in WNW 9.9 mph 16 mph 66.9% 0.00 in 390 W/m2
17:39 63.1 °F 52 °F 30.01 in WNW 8.8 mph 16 mph 67% 0.00 in 381 W/m2
17:44 63.2 °F 52.3 °F 30.01 in WNW 6.8 mph 13 mph 67.5% 0.00 in 378 W/m2
17:49 63.4 °F 52.6 °F 30.01 in WNW 9.2 mph 15 mph 68% 0.00 in 376 W/m2
17:54 63.2 °F 51.7 °F 30.01 in WNW 13.3 mph 20 mph 66.2% 0.00 in 352 W/m2
17:59 63 °F 51.5 °F 30.02 in WNW 10 mph 18 mph 66.1% 0.00 in 336 W/m2
18:04 63 °F 51.7 °F 30.02 in West 13 mph 22 mph 66.8% 0.00 in 316 W/m2
18:09 62.8 °F 51.9 °F 30.02 in WNW 9.4 mph 22 mph 67.7% 0.00 in 301 W/m2
18:14 62.8 °F 52.3 °F 30.02 in WNW 11 mph 20 mph 68.5% 0.00 in 285 W/m2
18:19 62.3 °F 52.2 °F 30.02 in WNW 11.1 mph 23 mph 69.4% 0.00 in 285 W/m2
18:24 62.3 °F 52.3 °F 30.02 in West 11.5 mph 19 mph 69.7% 0.00 in 281 W/m2
18:29 62.5 °F 52.6 °F 30.02 in WNW 7.3 mph 16 mph 70% 0.00 in 241 W/m2
18:34 62.7 °F 52.8 °F 30.02 in West 5.9 mph 12 mph 70% 0.00 in 229 W/m2
18:39 62.6 °F 52.7 °F 30.02 in WNW 11.3 mph 17 mph 70% 0.00 in 211 W/m2
18:44 62.2 °F 52 °F 30.02 in West 8.7 mph 16 mph 69.1% 0.00 in 199 W/m2
18:49 62.2 °F 51.6 °F 30.02 in West 9.3 mph 15 mph 68.1% 0.00 in 179 W/m2
18:54 62.1 °F 51.7 °F 30.03 in West 9.2 mph 17 mph 68.7% 0.00 in 165 W/m2
18:59 61.7 °F 51.4 °F 30.03 in West 8.5 mph 17 mph 69% 0.00 in 146 W/m2
19:04 61.5 °F 51.4 °F 30.03 in West 9.9 mph 17 mph 69.4% 0.00 in 137 W/m2
19:09 61.4 °F 51.5 °F 30.03 in West 9.4 mph 18 mph 70% 0.00 in 114 W/m2
19:14 61.3 °F 51.7 °F 30.03 in WNW 7.2 mph 15 mph 70.7% 0.00 in 104 W/m2
19:19 61.2 °F 51.8 °F 30.03 in West 7.6 mph 16 mph 71.5% 0.00 in 90 W/m2
19:24 61 °F 52 °F 30.03 in WNW 5.9 mph 14 mph 72% 0.00 in 79 W/m2
19:29 60.8 °F 52.1 °F 30.03 in West 5.3 mph 16 mph 72.7% 0.00 in 72 W/m2
19:34 60.6 °F 52 °F 30.03 in West 5.5 mph 12 mph 73% 0.00 in 63 W/m2
19:39 60.5 °F 52.2 °F 30.03 in West 5.2 mph 9 mph 73.8% 0.00 in 56 W/m2
19:44 60.4 °F 52.1 °F 30.03 in WNW 6.4 mph 11 mph 74% 0.00 in 47 W/m2
19:49 60.2 °F 51.9 °F 30.03 in WNW 6.8 mph 13 mph 74% 0.00 in 40 W/m2
19:54 59.8 °F 51.5 °F 30.03 in West 7.2 mph 15 mph 74% 0.00 in 32 W/m2
19:59 59.7 °F 51.4 °F 30.04 in West 8.7 mph 15 mph 74% 0.00 in 26 W/m2
20:04 59.5 °F 51.1 °F 30.04 in West 6.3 mph 13 mph 73.7% 0.00 in 21 W/m2
20:09 59.2 °F 50.9 °F 30.04 in West 5.3 mph 10 mph 74% 0.00 in 18 W/m2
20:14 58.9 °F 50.6 °F 30.04 in West 5.3 mph 10 mph 74% 0.00 in 14 W/m2
20:19 58.6 °F 50.4 °F 30.04 in West 4.3 mph 9 mph 74% 0.00 in 11 W/m2
20:24 58.6 °F 50.3 °F 30.04 in West 3.9 mph 8 mph 74% 0.00 in 7 W/m2
20:29 58.4 °F 50.2 °F 30.04 in West 3.1 mph 8 mph 74.2% 0.00 in 0 W/m2
20:34 58.2 °F 50.3 °F 30.05 in West 3 mph 9 mph 75% 0.00 in 0 W/m2
20:39 58 °F 50.1 °F 30.05 in WNW 1.7 mph 4 mph 75% 0.00 in 0 W/m2
20:44 57.8 °F 49.9 °F 30.05 in WNW 1.7 mph 5 mph 75% 0.00 in 0 W/m2
20:49 57.7 °F 49.8 °F 30.05 in WNW 0.6 mph 5 mph 75% 0.00 in 0 W/m2
20:54 57.6 °F 49.7 °F 30.06 in WNW 0.1 mph 2 mph 75% 0.00 in 0 W/m2
20:59 57.6 °F 49.6 °F 30.06 in WNW 0.1 mph 2 mph 75% 0.00 in 0 W/m2
21:04 57.6 °F 50 °F 30.06 in Calm   1 mph 76% 0.00 in 0 W/m2
21:09 57.4 °F 49.8 °F 30.06 in Calm   1 mph 76% 0.00 in 0 W/m2
21:14 57.3 °F 49.7 °F 30.06 in WNW 0.3 mph 3 mph 76% 0.00 in 0 W/m2
21:19 57.2 °F 49.9 °F 30.07 in WNW 0.7 mph 3 mph 76.6% 0.00 in 0 W/m2
21:24 57.2 °F 50.3 °F 30.07 in WNW 2.4 mph 6 mph 77.9% 0.00 in 0 W/m2
21:29 56.9 °F 50.6 °F 30.07 in WNW 3.1 mph 6 mph 79.6% 0.00 in 0 W/m2
21:34 56.7 °F 50.9 °F 30.07 in West 2.8 mph 7 mph 81% 0.00 in 0 W/m2
21:39 56.6 °F 51.2 °F 30.07 in West 0.8 mph 3 mph 82% 0.00 in 0 W/m2
21:44 56.4 °F 51.3 °F 30.07 in West 0.7 mph 3 mph 82.9% 0.00 in 0 W/m2
21:49 56.3 °F 51.3 °F 30.07 in West 0.1 mph 2 mph 83.2% 0.00 in 0 W/m2
21:54 56.2 °F 51.4 °F 30.07 in West 0.2 mph 2 mph 84% 0.00 in 0 W/m2
21:59 56.1 °F 51.4 °F 30.07 in West 0.2 mph 2 mph 84.3% 0.00 in 0 W/m2
22:04 55.9 °F 51.4 °F 30.07 in Calm   2 mph 85% 0.00 in 0 W/m2
22:09 55.8 °F 51.3 °F 30.07 in West 0.5 mph 3 mph 85% 0.00 in 0 W/m2
22:14 55.8 °F 51.3 °F 30.07 in West 0.9 mph 3 mph 85% 0.00 in 0 W/m2
22:19 55.6 °F 51.1 °F 30.07 in West 0.6 mph 4 mph 85% 0.00 in 0 W/m2
22:24 55.6 °F 51.1 °F 30.07 in West 1.4 mph 4 mph 85% 0.00 in 0 W/m2
22:29 55.7 °F 51.1 °F 30.08 in West 2.3 mph 5 mph 84.7% 0.00 in 0 W/m2
22:34 55.6 °F 50.9 °F 30.08 in West 0.7 mph 5 mph 84% 0.00 in 0 W/m2
22:39 55.6 °F 50.9 °F 30.08 in West 0.6 mph 3 mph 84% 0.00 in 0 W/m2
22:44 55.6 °F 50.8 °F 30.08 in West 1.1 mph 4 mph 84% 0.00 in 0 W/m2
22:49 55.4 °F 50.7 °F 30.08 in West 0.7 mph 3 mph 84% 0.00 in 0 W/m2
22:54 55.4 °F 50.7 °F 30.08 in West 1.4 mph 4 mph 84% 0.00 in 0 W/m2
22:59 55.4 °F 50.7 °F 30.08 in West 1.6 mph 4 mph 84% 0.00 in 0 W/m2
23:04 55.4 °F 50.7 °F 30.09 in West 1.8 mph 6 mph 84% 0.00 in 0 W/m2
23:09 55.4 °F 50.7 °F 30.09 in West 2.2 mph 6 mph 84% 0.00 in 0 W/m2
23:14 55.2 °F 50.5 °F 30.09 in West 2.2 mph 6 mph 84% 0.00 in 0 W/m2
23:19 55.2 °F 50.5 °F 30.09 in West 2 mph 6 mph 84% 0.00 in 0 W/m2
23:24 55 °F 50.4 °F 30.09 in West 0.7 mph 3 mph 84% 0.00 in 0 W/m2
23:29 54.9 °F 50.2 °F 30.09 in West 0.3 mph 2 mph 84% 0.00 in 0 W/m2
23:34 54.9 °F 50.2 °F 30.09 in Calm   1 mph 84% 0.00 in 0 W/m2
23:39 54.7 °F 50 °F 30.09 in West 0.5 mph 3 mph 84% 0.00 in 0 W/m2
23:44 54.5 °F 49.8 °F 30.09 in Calm   1 mph 84% 0.00 in 0 W/m2
23:49 54.5 °F 49.9 °F 30.09 in West 0.1 mph 3 mph 84.3% 0.00 in 0 W/m2
23:54 54.5 °F 50 °F 30.09 in Calm     85% 0.00 in 0 W/m2
23:59 54.4 °F 49.9 °F 30.09 in Calm     85% 0.00 in 0 W/m2
Bath Spa Weather
Compliments of Weather Underground - 2 mb